CYYG

Charlottetown Airport

Charlottetown, Prince Edward Island, Canada
TAF AMD CYYG 182016Z 1820/1906 35008KT P6SM SCT007 OVC025 TEMPO 1820/1822 P6SM -SHRA BKN007 OVC015 FM182200 32008KT P6SM SCT015 BKN030 TEMPO 1822/1824 SCT007 BKN015 OVC030 FM190000 32008KT P6SM SCT040 TEMPO 1900/1902 BKN040 RMK NXT FCST BY 190000Z
Issued Valid From Valid To
Jul-18 @ 20:16 UTC
(2 hours ago)
Jul-18 @ 20:00 UTC
(2 hours ago)
Jul-19 @ 06:00 UTC
(in 8 hours)
Expired Click to View Jul-18 @ 20:00 to Jul-18 @ 22:00
TAF AMD CYYG 182016Z 1820/1906 35008KT P6SM SCT007 OVC025
Wind Visibility Clouds
350° at 8 knots Greater than 6 miles
  • Scattered at 700' AGL
  • Overcast at 2,500' AGL
Expired Click to View Jul-18 @ 20:00 to Jul-18 @ 22:00
TEMPO 1820/1822 P6SM -SHRA BKN007 OVC015
Visibility Clouds Conditions
Greater than 6 miles
  • Broken at 700' AGL
  • Overcast at 1,500' AGL
  • Light Rain
Temporary Jul-18 @ 22:00 to Jul-19 @ 00:00
TEMPO 1822/1824 SCT007 BKN015 OVC030
Clouds
  • Scattered at 700' AGL
  • Broken at 1,500' AGL
  • Overcast at 3,000' AGL
From Jul-18 @ 22:00 to Jul-19 @ 00:00
FM182200 32008KT P6SM SCT015 BKN030
Wind Visibility Clouds
320° at 8 knots Greater than 6 miles
  • Scattered at 1,500' AGL
  • Broken at 3,000' AGL
Temporary Jul-19 @ 00:00 to Jul-19 @ 02:00
TEMPO 1900/1902 BKN040 RMK NXT FCST BY 190000Z
Clouds
  • Broken at 4,000' AGL
From Jul-19 @ 00:00 to Jul-19 @ 06:00
FM190000 32008KT P6SM SCT040
Wind Visibility Clouds
320° at 8 knots Greater than 6 miles
  • Scattered at 4,000' AGL
TAF AMD CYYG 182016Z 1820/1906 35008KT P6SM SCT007 OVC025 TEMPO 1820/1822 P6SM -SHRA BKN007 OVC015 FM182200 32008KT P6SM SCT015 BKN030 TEMPO 1822/1824 SCT007 BKN015 OVC030 FM190000 32008KT P6SM SCT040 TEMPO 1900/1902 BKN040 RMK NXT FCST BY 190000Z
Issued Jul-18 @ 20:16 UTC
(2 hours ago)
Valid From Jul-18 @ 20:00 UTC
(2 hours ago)
Valid To Jul-19 @ 06:00 UTC
(in 8 hours)
Jul-18 @ 20:00 - Jul-18 @ 22:00
Wind Visibility
350° at 8 knots Greater than 6 miles
Clouds
  • Scattered at 700' AGL
  • Overcast at 2,500' AGL
Jul-18 @ 20:00 - Jul-18 @ 22:00
Clouds
  • Broken at 700' AGL
  • Overcast at 1,500' AGL
Conditions
  • Light Rain
Temporary Jul-18 @ 22:00 - Jul-19 @ 00:00
Clouds
  • Scattered at 700' AGL
  • Broken at 1,500' AGL
  • Overcast at 3,000' AGL
From Jul-18 @ 22:00 - Jul-19 @ 00:00
Wind Visibility
320° at 8 knots Greater than 6 miles
Clouds
  • Scattered at 1,500' AGL
  • Broken at 3,000' AGL
Temporary Jul-19 @ 00:00 - Jul-19 @ 02:00
Clouds
  • Broken at 4,000' AGL
From Jul-19 @ 00:00 - Jul-19 @ 06:00
Wind Visibility
320° at 8 knots Greater than 6 miles
Clouds
  • Scattered at 4,000' AGL